Skip Navigation Links Skip Navigation Links

Current Weather

Leesburg Executive, Leesburg, Va.

For information only: do not use for flight planning or navigation.
Latest weather
Observation time Sunday, August 1, 2021 5:35 AM EDT
Local time Sunday, August 1, 2021 5:49 AM EDT
Flight conditions Marginal Visual Meteorological Conditions
Winds
Wind speed calm
Visibility 10 mi.
Sky condition
Ceiling 1,300 ft. broken clouds
Cloud layer broken clouds 1,300 ft.
Cloud layer overcast 11,000 ft.
Temperature 64°F
Dewpoint 64°F
Altimeter 29.90 in.Hg
Derived measurements
Relative humidity 100%
Density altitude 1047 ft.
Remarks
Fully automated report.
Automated weather observing station with precipitation discriminator.
METAR KJYO 010935Z AUTO 00000KT 10SM BKN013 OVC110 18/18 A2990 RMK AO2

Settings

Location code

InnerDrive.Weather 4.0.6770.0 Release CLR 4.0.30319.42000
Copyright ©2018 Inner Drive Technology. All rights reserved. Portions Copyright ©1986-2018 David Braverman.

Find weather

Site navigation


Skip Navigation Links

Place info

Page info

PayPal - The safer, easier way to pay online!

Return home.

Copyright ©2021 Inner Drive Technology. Purveyors of fine, hand-crafted computer software. Page printed 2021-08-01T09:49:32 UTC.